Time;durP1;ratioP1;P1;durP2;ratioP2;P2;SDS_P1;SDS_P2;PMS_P1;PMS_P2;Temp;Humidity;BMP_temperature;BMP_pressure;BME280_temperature;BME280_humidity;BME280_pressure;Samples;Min_cycle;Max_cycle;Signal;HPM_P1;HPM_P2
2022/08/16 00:00:19;;;;;;;21.90;18.25;;;;;;;;;;5065119;28;20223;-64
2022/08/16 00:02:45;;;;;;;21.58;17.13;;;;;;;;;;5062959;28;20192;-64
2022/08/16 00:05:12;;;;;;;21.98;18.30;;;;;;;;;;5069685;28;20189;-64
2022/08/16 00:07:38;;;;;;;20.67;17.63;;;;;;;;;;5058504;28;20500;-64
2022/08/16 00:10:07;;;;;;;25.13;18.10;;;;;;;;;;5069237;28;20193;-64
2022/08/16 00:12:32;;;;;;;23.27;18.25;;;;;;;;;;5053483;28;20267;-64
2022/08/16 00:15:00;;;;;;;23.65;18.58;;;;;;;;;;5049801;28;20219;-64
2022/08/16 00:17:26;;;;;;;25.67;18.35;;;;;;;;;;5048868;28;20208;-64
2022/08/16 00:19:53;;;;;;;23.13;17.40;;;;;;;;;;5052610;28;20648;-64
2022/08/16 00:22:18;;;;;;;25.13;19.63;;;;;;;;;;5048292;28;20644;-64
2022/08/16 00:24:43;;;;;;;22.23;19.05;;;;;;;;;;5067754;28;20173;-64
2022/08/16 00:27:09;;;;;;;21.75;18.13;;;;;;;;;;5063501;28;20236;-64
2022/08/16 00:29:34;;;;;;;24.00;17.70;;;;;;;;;;5061511;28;20657;-64
2022/08/16 00:32:03;;;;;;;24.80;19.02;;;;;;;;;;5067808;28;20231;-64
2022/08/16 00:34:29;;;;;;;19.58;17.08;;;;;;;;;;5050355;28;20668;-64
2022/08/16 00:36:55;;;;;;;28.90;18.88;;;;;;;;;;5048185;28;20261;-64
2022/08/16 00:39:21;;;;;;;23.27;18.75;;;;;;;;;;5048108;28;20641;-64
2022/08/16 00:41:48;;;;;;;24.90;20.02;;;;;;;;;;5062094;28;20295;-64
2022/08/16 00:44:16;;;;;;;21.25;18.27;;;;;;;;;;5052668;28;20191;-64
2022/08/16 00:47:04;;;;;;;19.90;17.80;;;;;;;;;;5048222;28;20688;-64
2022/08/16 00:49:29;;;;;;;23.55;17.42;;;;;;;;;;5058390;28;20215;-64
2022/08/16 00:51:54;;;;;;;24.60;17.85;;;;;;;;;;5055846;28;20288;-64
2022/08/16 00:54:23;;;;;;;26.80;18.13;;;;;;;;;;5051445;28;20535;-64
2022/08/16 00:56:50;;;;;;;22.15;17.52;;;;;;;;;;5058041;28;20182;-64
2022/08/16 00:59:19;;;;;;;22.65;16.80;;;;;;;;;;5065477;28;20501;-64
2022/08/16 01:01:44;;;;;;;22.30;17.40;;;;;;;;;;5058506;28;20550;-64
2022/08/16 01:04:11;;;;;;;21.30;16.58;;;;;;;;;;5064127;28;20173;-64
2022/08/16 01:06:37;;;;;;;21.02;16.63;;;;;;;;;;5064977;28;20280;-64
2022/08/16 01:09:05;;;;;;;20.27;17.55;;;;;;;;;;5051145;28;20198;-64
2022/08/16 01:11:32;;;;;;;19.75;17.48;;;;;;;;;;5049198;28;20632;-64
2022/08/16 01:14:13;;;;;;;22.98;17.80;;;;;;;;;;5060732;28;20189;-64
2022/08/16 01:16:41;;;;;;;21.42;17.30;;;;;;;;;;5053211;28;20192;-64
2022/08/16 01:19:13;;;;;;;19.02;16.92;;;;;;;;;;5057006;28;20170;-64
2022/08/16 01:22:09;;;;;;;21.65;16.90;;;;;;;;;;5053128;28;20203;-64
2022/08/16 01:24:41;;;;;;;21.75;17.35;;;;;;;;;;5047011;28;20177;-64
2022/08/16 01:27:11;;;;;;;24.13;17.88;;;;;;;;;;5047820;28;20209;-64
2022/08/16 01:29:45;;;;;;;20.20;17.17;;;;;;;;;;5059036;28;20213;-64
2022/08/16 01:32:10;;;;;;;21.92;17.40;;;;;;;;;;5071697;28;20247;-64
2022/08/16 01:34:36;;;;;;;22.88;17.13;;;;;;;;;;5048272;28;20205;-64
2022/08/16 01:37:06;;;;;;;24.08;17.55;;;;;;;;;;5050858;28;20682;-64
2022/08/16 01:39:32;;;;;;;18.83;16.75;;;;;;;;;;5048156;28;20184;-64
2022/08/16 01:41:58;;;;;;;21.45;16.90;;;;;;;;;;5047258;28;20189;-63
2022/08/16 01:44:23;;;;;;;23.23;17.85;;;;;;;;;;5053194;28;20644;-64
2022/08/16 01:46:49;;;;;;;20.52;17.50;;;;;;;;;;5056856;28;20264;-64
2022/08/16 01:49:18;;;;;;;26.38;18.88;;;;;;;;;;5046880;28;20259;-64
2022/08/16 01:51:47;;;;;;;22.10;19.35;;;;;;;;;;5048088;28;20181;-64
2022/08/16 01:54:12;;;;;;;25.83;19.15;;;;;;;;;;5061875;28;20251;-64
2022/08/16 01:56:38;;;;;;;21.73;17.83;;;;;;;;;;5058826;28;20180;-64
2022/08/16 01:59:06;;;;;;;20.65;18.38;;;;;;;;;;5071427;28;20199;-64
2022/08/16 02:01:32;;;;;;;20.70;16.95;;;;;;;;;;5051835;28;20220;-64
2022/08/16 02:03:58;;;;;;;20.98;16.63;;;;;;;;;;5051585;28;20193;-64
2022/08/16 02:06:24;;;;;;;20.45;15.38;;;;;;;;;;5054093;28;20208;-64
2022/08/16 02:08:50;;;;;;;18.77;16.08;;;;;;;;;;5059433;28;20185;-65
2022/08/16 02:11:15;;;;;;;23.50;17.08;;;;;;;;;;5049976;28;20181;-64
2022/08/16 02:13:41;;;;;;;22.67;18.02;;;;;;;;;;5051520;28;20260;-64
2022/08/16 02:16:08;;;;;;;23.40;16.77;;;;;;;;;;5050717;28;20182;-64
2022/08/16 02:18:33;;;;;;;24.77;17.25;;;;;;;;;;5061688;28;20189;-64
2022/08/16 02:20:58;;;;;;;23.50;17.48;;;;;;;;;;5063783;28;20515;-64
2022/08/16 02:23:24;;;;;;;21.20;17.92;;;;;;;;;;5059596;28;20204;-64
2022/08/16 02:25:49;;;;;;;25.02;18.23;;;;;;;;;;5060995;28;20181;-64
2022/08/16 02:28:16;;;;;;;25.63;18.58;;;;;;;;;;5064053;28;20236;-64
2022/08/16 02:30:41;;;;;;;24.60;19.48;;;;;;;;;;5060239;28;20196;-64
2022/08/16 02:33:07;;;;;;;28.88;19.58;;;;;;;;;;5067797;28;20617;-64
2022/08/16 02:35:33;;;;;;;25.10;19.08;;;;;;;;;;5055239;28;20184;-64
2022/08/16 02:37:59;;;;;;;25.45;18.67;;;;;;;;;;5067483;28;20735;-64
2022/08/16 02:40:25;;;;;;;25.13;19.27;;;;;;;;;;5067311;28;20267;-64
2022/08/16 02:42:52;;;;;;;26.02;20.33;;;;;;;;;;5060848;28;20260;-64
2022/08/16 02:45:20;;;;;;;24.73;19.08;;;;;;;;;;5068130;28;20189;-64
2022/08/16 02:47:45;;;;;;;21.20;18.77;;;;;;;;;;5057643;28;20199;-64
2022/08/16 02:50:11;;;;;;;26.17;20.88;;;;;;;;;;5056431;28;20205;-64
2022/08/16 02:52:36;;;;;;;25.75;21.00;;;;;;;;;;5054797;28;20220;-64
2022/08/16 02:55:02;;;;;;;25.40;20.48;;;;;;;;;;5062342;28;20219;-64
2022/08/16 02:57:29;;;;;;;27.05;21.38;;;;;;;;;;5051633;28;20218;-64
2022/08/16 02:59:55;;;;;;;25.77;21.35;;;;;;;;;;5060350;28;20185;-64
2022/08/16 03:02:20;;;;;;;25.08;21.23;;;;;;;;;;5054257;28;20615;-64
2022/08/16 03:04:46;;;;;;;26.20;21.10;;;;;;;;;;5069449;28;20636;-64
2022/08/16 03:07:13;;;;;;;24.88;20.70;;;;;;;;;;5055093;28;20228;-64
2022/08/16 03:09:39;;;;;;;24.85;19.92;;;;;;;;;;5054990;28;20256;-64
2022/08/16 03:12:05;;;;;;;27.30;20.95;;;;;;;;;;5062988;28;20189;-64
2022/08/16 03:14:32;;;;;;;24.50;19.85;;;;;;;;;;5062849;28;20390;-64
2022/08/16 03:16:58;;;;;;;23.73;20.40;;;;;;;;;;5051599;28;20462;-64
2022/08/16 03:19:24;;;;;;;28.00;20.83;;;;;;;;;;5062633;28;20181;-65
2022/08/16 03:21:49;;;;;;;27.63;19.63;;;;;;;;;;5051363;28;20208;-64
2022/08/16 03:24:15;;;;;;;27.13;21.25;;;;;;;;;;5053809;28;20186;-64
2022/08/16 03:26:40;;;;;;;29.10;20.77;;;;;;;;;;5054863;28;20781;-64
2022/08/16 03:29:06;;;;;;;27.27;20.67;;;;;;;;;;5069737;28;20197;-64
2022/08/16 03:31:31;;;;;;;22.17;19.77;;;;;;;;;;5072145;28;20655;-64
2022/08/16 03:33:56;;;;;;;23.98;20.00;;;;;;;;;;5054919;28;20688;-64
2022/08/16 03:36:22;;;;;;;26.70;20.40;;;;;;;;;;5057801;28;20181;-64
2022/08/16 03:38:48;;;;;;;24.10;19.60;;;;;;;;;;5051514;28;20181;-64
2022/08/16 03:41:14;;;;;;;25.35;19.90;;;;;;;;;;5049460;28;20302;-64
2022/08/16 03:43:39;;;;;;;25.17;20.48;;;;;;;;;;5050583;28;20268;-64
2022/08/16 03:46:05;;;;;;;23.83;20.13;;;;;;;;;;5069381;28;20191;-64
2022/08/16 03:48:33;;;;;;;22.52;19.52;;;;;;;;;;5056934;28;20185;-64
2022/08/16 03:51:01;;;;;;;24.27;19.40;;;;;;;;;;5059616;28;20209;-64
2022/08/16 03:53:28;;;;;;;26.73;19.75;;;;;;;;;;5057863;28;20188;-64
2022/08/16 03:55:53;;;;;;;24.52;18.80;;;;;;;;;;5050210;28;20193;-64
2022/08/16 03:58:18;;;;;;;27.33;20.75;;;;;;;;;;5049220;28;20284;-64
2022/08/16 04:00:44;;;;;;;27.10;20.25;;;;;;;;;;5048615;28;20648;-64
2022/08/16 04:03:09;;;;;;;25.98;19.15;;;;;;;;;;5057224;28;20176;-64
2022/08/16 04:05:39;;;;;;;22.45;19.50;;;;;;;;;;5053889;28;20275;-64
2022/08/16 04:08:05;;;;;;;27.55;21.00;;;;;;;;;;5050966;28;20542;-64
2022/08/16 04:10:31;;;;;;;27.67;19.70;;;;;;;;;;5058725;28;20262;-64
2022/08/16 04:12:57;;;;;;;27.15;21.15;;;;;;;;;;5048025;28;20173;-64
2022/08/16 04:15:24;;;;;;;26.67;21.02;;;;;;;;;;5063224;28;20232;-64
2022/08/16 04:17:50;;;;;;;26.33;22.05;;;;;;;;;;5064559;28;20649;-64
2022/08/16 04:20:16;;;;;;;29.38;20.50;;;;;;;;;;5048650;28;20205;-64
2022/08/16 04:22:42;;;;;;;28.15;20.52;;;;;;;;;;5052454;28;20269;-64
2022/08/16 04:25:09;;;;;;;24.00;20.48;;;;;;;;;;5049722;28;20185;-64
2022/08/16 04:27:34;;;;;;;25.77;21.70;;;;;;;;;;5047970;28;20675;-64
2022/08/16 04:30:02;;;;;;;26.58;21.70;;;;;;;;;;5047383;28;20249;-64
2022/08/16 04:32:27;;;;;;;27.60;21.05;;;;;;;;;;5064932;28;20217;-64
2022/08/16 04:34:53;;;;;;;28.83;22.08;;;;;;;;;;5051917;28;20185;-64
2022/08/16 04:37:18;;;;;;;26.65;21.30;;;;;;;;;;5053045;28;20275;-64
2022/08/16 04:39:43;;;;;;;28.92;21.40;;;;;;;;;;5064305;28;20267;-64
2022/08/16 04:42:09;;;;;;;27.90;21.02;;;;;;;;;;5067726;28;20187;-64
2022/08/16 04:44:34;;;;;;;25.92;20.48;;;;;;;;;;5067911;28;20501;-64
2022/08/16 04:46:59;;;;;;;28.70;21.17;;;;;;;;;;5061060;28;20703;-64
2022/08/16 04:49:25;;;;;;;25.98;20.30;;;;;;;;;;5055624;28;20231;-64
2022/08/16 04:51:51;;;;;;;26.20;19.70;;;;;;;;;;5054397;28;20242;-64
2022/08/16 04:54:17;;;;;;;29.92;22.02;;;;;;;;;;5052086;28;20216;-64
2022/08/16 04:56:42;;;;;;;28.17;21.65;;;;;;;;;;5059411;28;20181;-64
2022/08/16 04:59:08;;;;;;;26.35;21.67;;;;;;;;;;5053627;28;20703;-64
2022/08/16 05:01:35;;;;;;;25.77;20.70;;;;;;;;;;5059034;28;20686;-64
2022/08/16 05:04:00;;;;;;;25.92;21.77;;;;;;;;;;5063050;28;20284;-64
2022/08/16 05:06:26;;;;;;;25.50;21.73;;;;;;;;;;5067344;28;20217;-64
2022/08/16 05:08:52;;;;;;;25.75;22.02;;;;;;;;;;5059317;28;20598;-64
2022/08/16 05:11:17;;;;;;;29.80;22.42;;;;;;;;;;5066358;28;20195;-64
2022/08/16 05:13:46;;;;;;;26.98;22.00;;;;;;;;;;5067558;28;20591;-64
2022/08/16 05:16:16;;;;;;;31.13;22.75;;;;;;;;;;5063638;28;20591;-64
2022/08/16 05:18:42;;;;;;;32.00;22.48;;;;;;;;;;5057994;28;20192;-64
2022/08/16 05:21:07;;;;;;;29.45;22.27;;;;;;;;;;5053083;28;20186;-64
2022/08/16 05:23:32;;;;;;;30.55;23.08;;;;;;;;;;5059334;28;20181;-64
2022/08/16 05:25:59;;;;;;;34.70;23.90;;;;;;;;;;5049800;28;20228;-64
2022/08/16 05:28:25;;;;;;;29.00;24.45;;;;;;;;;;5062039;28;20256;-64
2022/08/16 05:30:51;;;;;;;32.63;23.80;;;;;;;;;;5068277;28;20201;-63
2022/08/16 05:33:16;;;;;;;27.75;23.15;;;;;;;;;;5068157;28;20188;-64
2022/08/16 05:35:42;;;;;;;31.33;23.88;;;;;;;;;;5052203;28;20666;-63
2022/08/16 05:38:07;;;;;;;26.85;23.48;;;;;;;;;;5060324;28;20214;-64
2022/08/16 05:40:33;;;;;;;28.55;22.67;;;;;;;;;;5070234;28;20611;-64
2022/08/16 05:42:58;;;;;;;27.23;21.40;;;;;;;;;;5071890;28;20193;-63
2022/08/16 05:45:23;;;;;;;25.25;20.73;;;;;;;;;;5056709;28;20193;-63
2022/08/16 05:47:49;;;;;;;30.45;22.15;;;;;;;;;;5063504;28;20219;-63
2022/08/16 05:50:14;;;;;;;28.23;22.40;;;;;;;;;;5050500;28;20219;-63
2022/08/16 05:52:39;;;;;;;32.53;23.05;;;;;;;;;;5055211;28;20546;-63
2022/08/16 05:55:05;;;;;;;27.70;22.23;;;;;;;;;;5051934;28;20181;-64
2022/08/16 05:57:31;;;;;;;28.17;21.77;;;;;;;;;;5065117;28;20498;-63
2022/08/16 05:59:56;;;;;;;28.40;21.65;;;;;;;;;;5053945;28;20259;-63
2022/08/16 06:02:26;;;;;;;27.73;21.13;;;;;;;;;;5050416;28;20181;-63
2022/08/16 06:04:51;;;;;;;28.15;21.90;;;;;;;;;;5061748;28;20268;-63
2022/08/16 06:07:17;;;;;;;25.10;19.88;;;;;;;;;;5057575;28;20269;-63
2022/08/16 06:09:42;;;;;;;26.45;21.27;;;;;;;;;;5067242;28;20196;-63
2022/08/16 06:12:08;;;;;;;25.70;21.77;;;;;;;;;;5071950;28;20284;-63
2022/08/16 06:14:33;;;;;;;27.13;22.85;;;;;;;;;;5070074;28;20650;-63
2022/08/16 06:16:59;;;;;;;24.13;20.48;;;;;;;;;;5071705;28;20241;-63
2022/08/16 06:19:24;;;;;;;27.35;22.00;;;;;;;;;;5066914;28;20277;-63
2022/08/16 06:21:49;;;;;;;22.48;19.27;;;;;;;;;;5051083;28;20278;-63
2022/08/16 06:24:15;;;;;;;25.83;20.60;;;;;;;;;;5063512;28;20272;-63
2022/08/16 06:26:40;;;;;;;26.45;21.42;;;;;;;;;;5061291;28;20343;-63
2022/08/16 06:29:05;;;;;;;29.33;21.20;;;;;;;;;;5062635;28;20209;-63
2022/08/16 06:31:31;;;;;;;28.20;21.67;;;;;;;;;;5067419;28;20199;-63
2022/08/16 06:33:57;;;;;;;24.20;19.63;;;;;;;;;;5055287;28;20182;-63
2022/08/16 06:36:22;;;;;;;27.70;21.75;;;;;;;;;;5049864;28;20251;-63
2022/08/16 06:38:50;;;;;;;24.05;19.98;;;;;;;;;;5064027;28;20280;-63
2022/08/16 06:41:15;;;;;;;23.83;19.85;;;;;;;;;;5060267;28;20189;-63
2022/08/16 06:43:41;;;;;;;24.50;19.75;;;;;;;;;;5063443;28;20184;-63
2022/08/16 06:46:19;;;;;;;21.27;18.48;;;;;;;;;;5050965;28;20698;-63
2022/08/16 06:48:44;;;;;;;25.00;20.55;;;;;;;;;;5051980;28;20182;-63
2022/08/16 06:51:10;;;;;;;25.45;18.80;;;;;;;;;;5069703;28;20234;-63
2022/08/16 06:53:36;;;;;;;26.45;20.35;;;;;;;;;;5066409;28;20184;-63
2022/08/16 06:56:05;;;;;;;24.17;19.42;;;;;;;;;;5056014;28;20181;-63
2022/08/16 06:58:31;;;;;;;24.10;19.00;;;;;;;;;;5070419;28;20197;-63
2022/08/16 07:00:56;;;;;;;28.25;19.98;;;;;;;;;;5054385;28;20233;-63
2022/08/16 07:03:22;;;;;;;22.83;20.02;;;;;;;;;;5062287;28;20185;-63
2022/08/16 07:05:48;;;;;;;26.35;21.02;;;;;;;;;;5065089;28;20216;-63
2022/08/16 07:08:13;;;;;;;22.33;19.70;;;;;;;;;;5067445;28;20187;-63
2022/08/16 07:10:39;;;;;;;22.75;19.92;;;;;;;;;;5055533;28;20213;-63
2022/08/16 07:13:04;;;;;;;23.45;19.95;;;;;;;;;;5056420;28;20177;-63
2022/08/16 07:15:30;;;;;;;25.27;20.80;;;;;;;;;;5058090;28;20185;-63
2022/08/16 07:17:56;;;;;;;25.60;21.83;;;;;;;;;;5063537;28;20173;-63
2022/08/16 07:20:21;;;;;;;24.00;19.30;;;;;;;;;;5059789;28;20210;-63
2022/08/16 07:22:47;;;;;;;31.60;20.25;;;;;;;;;;5063436;28;20273;-63
2022/08/16 07:25:14;;;;;;;27.05;20.17;;;;;;;;;;5058924;28;20703;-63
2022/08/16 07:27:40;;;;;;;23.60;20.77;;;;;;;;;;5049495;28;20720;-63
2022/08/16 07:30:11;;;;;;;28.50;20.85;;;;;;;;;;5065091;28;20209;-63
2022/08/16 07:32:37;;;;;;;28.92;19.83;;;;;;;;;;5068963;28;20193;-63
2022/08/16 07:35:03;;;;;;;23.00;19.42;;;;;;;;;;5063091;28;20177;-63
2022/08/16 07:37:29;;;;;;;25.38;21.08;;;;;;;;;;5050004;28;20272;-63
2022/08/16 07:39:54;;;;;;;22.15;18.42;;;;;;;;;;5049703;28;20211;-63
2022/08/16 07:42:19;;;;;;;24.92;19.35;;;;;;;;;;5053460;28;20184;-63
2022/08/16 07:44:45;;;;;;;23.88;18.55;;;;;;;;;;5058045;28;20292;-63
2022/08/16 07:47:10;;;;;;;25.58;19.42;;;;;;;;;;5051734;28;20189;-63
2022/08/16 07:49:35;;;;;;;25.38;19.85;;;;;;;;;;5059985;28;20273;-65
2022/08/16 07:52:01;;;;;;;24.00;20.70;;;;;;;;;;5062656;28;20215;-63
2022/08/16 07:54:27;;;;;;;28.35;19.80;;;;;;;;;;5059292;28;20188;-63
2022/08/16 07:56:52;;;;;;;26.50;19.33;;;;;;;;;;5054822;28;20189;-64
2022/08/16 07:59:18;;;;;;;43.70;21.00;;;;;;;;;;5048752;28;20177;-63
2022/08/16 08:01:43;;;;;;;27.00;19.52;;;;;;;;;;5059395;28;20268;-63
2022/08/16 08:04:11;;;;;;;22.30;17.50;;;;;;;;;;5052119;28;20182;-63
2022/08/16 08:06:37;;;;;;;22.13;18.33;;;;;;;;;;5058970;28;20188;-63
2022/08/16 08:09:03;;;;;;;21.92;19.58;;;;;;;;;;5054759;28;20185;-63
2022/08/16 08:11:29;;;;;;;25.90;19.98;;;;;;;;;;5062024;28;20730;-63
2022/08/16 08:13:58;;;;;;;19.02;16.58;;;;;;;;;;5062742;28;20192;-63
2022/08/16 08:16:24;;;;;;;18.17;15.48;;;;;;;;;;5054260;28;20184;-63
2022/08/16 08:18:50;;;;;;;20.73;16.80;;;;;;;;;;5067006;28;20276;-63
2022/08/16 08:21:18;;;;;;;18.77;16.40;;;;;;;;;;5050829;28;20292;-63
2022/08/16 08:23:44;;;;;;;17.98;15.82;;;;;;;;;;5058955;28;20686;-65
2022/08/16 08:26:09;;;;;;;15.85;14.18;;;;;;;;;;5052353;28;20189;-65
2022/08/16 08:28:34;;;;;;;22.55;15.85;;;;;;;;;;5061575;28;20687;-63
2022/08/16 08:31:02;;;;;;;18.27;15.38;;;;;;;;;;5064850;28;20675;-65
2022/08/16 08:33:28;;;;;;;16.60;14.18;;;;;;;;;;5057885;28;20209;-65
2022/08/16 08:36:02;;;;;;;18.35;14.18;;;;;;;;;;5068719;28;20216;-63
2022/08/16 08:38:29;;;;;;;20.23;14.52;;;;;;;;;;5052106;28;20185;-64
2022/08/16 08:40:55;;;;;;;17.80;14.20;;;;;;;;;;5056996;28;20181;-63
2022/08/16 08:43:21;;;;;;;14.38;12.85;;;;;;;;;;5055512;28;20181;-63
2022/08/16 08:45:46;;;;;;;17.17;13.18;;;;;;;;;;5048996;28;20200;-64
2022/08/16 08:48:12;;;;;;;18.23;14.15;;;;;;;;;;5058359;28;20176;-63
2022/08/16 08:50:39;;;;;;;14.70;12.38;;;;;;;;;;5064754;28;20647;-64
2022/08/16 08:53:04;;;;;;;15.73;13.38;;;;;;;;;;5057459;28;20209;-64
2022/08/16 08:55:30;;;;;;;18.38;13.85;;;;;;;;;;5051459;28;20579;-63
2022/08/16 08:57:56;;;;;;;17.00;12.93;;;;;;;;;;5048904;28;20181;-63
2022/08/16 09:00:23;;;;;;;15.95;12.95;;;;;;;;;;5048680;28;20185;-63
2022/08/16 09:02:49;;;;;;;16.13;12.93;;;;;;;;;;5053661;28;20235;-64
2022/08/16 09:05:17;;;;;;;13.45;10.93;;;;;;;;;;5056832;28;20541;-65
2022/08/16 09:07:43;;;;;;;12.35;11.10;;;;;;;;;;5053484;28;20611;-63
2022/08/16 09:10:09;;;;;;;14.95;12.23;;;;;;;;;;5057920;28;20219;-64
2022/08/16 09:12:35;;;;;;;19.17;11.90;;;;;;;;;;5067254;28;20180;-63
2022/08/16 09:15:01;;;;;;;14.63;12.52;;;;;;;;;;5059277;28;20174;-63
2022/08/16 09:17:27;;;;;;;13.45;11.30;;;;;;;;;;5062131;28;20229;-63
2022/08/16 09:19:54;;;;;;;15.55;11.27;;;;;;;;;;5048509;28;20188;-64
2022/08/16 09:22:21;;;;;;;15.73;10.48;;;;;;;;;;5048416;28;20197;-63
2022/08/16 09:24:48;;;;;;;12.77;10.48;;;;;;;;;;5057514;28;20176;-64
2022/08/16 09:27:13;;;;;;;12.65;10.13;;;;;;;;;;5060031;28;20240;-64
2022/08/16 09:29:38;;;;;;;13.50;10.68;;;;;;;;;;5068088;28;20233;-63
2022/08/16 09:32:04;;;;;;;13.63;10.70;;;;;;;;;;5070528;28;20227;-64
2022/08/16 09:34:29;;;;;;;13.13;10.55;;;;;;;;;;5047638;28;20319;-65
2022/08/16 09:36:56;;;;;;;12.77;10.85;;;;;;;;;;5047118;28;20246;-64
2022/08/16 09:39:23;;;;;;;12.45;10.82;;;;;;;;;;5057185;28;20649;-64
2022/08/16 09:41:50;;;;;;;13.00;11.13;;;;;;;;;;5052640;28;20215;-65
2022/08/16 09:44:15;;;;;;;13.05;10.50;;;;;;;;;;5047704;28;20185;-64
2022/08/16 09:46:41;;;;;;;11.52;10.40;;;;;;;;;;5060372;28;20192;-64
2022/08/16 09:49:06;;;;;;;16.67;10.98;;;;;;;;;;5056060;28;20221;-65
2022/08/16 09:51:31;;;;;;;14.73;9.68;;;;;;;;;;5055634;28;20220;-64
2022/08/16 09:53:57;;;;;;;13.63;9.45;;;;;;;;;;5047826;28;20182;-64
2022/08/16 09:56:29;;;;;;;12.77;9.98;;;;;;;;;;5047396;28;20189;-64
2022/08/16 09:58:55;;;;;;;13.55;9.60;;;;;;;;;;5047347;28;20256;-64
2022/08/16 10:01:21;;;;;;;13.73;9.75;;;;;;;;;;5048679;28;20259;-64
2022/08/16 10:03:46;;;;;;;12.95;10.32;;;;;;;;;;5061048;28;20652;-64
2022/08/16 10:06:12;;;;;;;11.93;9.60;;;;;;;;;;5047821;28;20185;-65
2022/08/16 10:08:37;;;;;;;13.13;9.50;;;;;;;;;;5054014;28;20182;-65
2022/08/16 10:13:47;;;;;;;10.93;8.30;;;;;;;;;;5059832;28;20241;-63
2022/08/16 10:16:12;;;;;;;9.82;8.82;;;;;;;;;;5065571;28;20591;-64
2022/08/16 10:18:40;;;;;;;10.45;8.15;;;;;;;;;;5070852;28;20653;-64
2022/08/16 10:21:05;;;;;;;9.27;6.50;;;;;;;;;;5070295;28;20187;-64
2022/08/16 10:23:31;;;;;;;8.13;6.32;;;;;;;;;;5062891;28;20188;-64
2022/08/16 10:25:57;;;;;;;8.43;6.60;;;;;;;;;;5053143;28;20204;-70
2022/08/16 10:28:24;;;;;;;8.13;7.32;;;;;;;;;;5051492;28;20247;-64
2022/08/16 10:30:49;;;;;;;7.88;5.75;;;;;;;;;;5072838;28;20204;-63
2022/08/16 10:33:15;;;;;;;5.80;5.30;;;;;;;;;;5065363;28;20188;-63
2022/08/16 10:35:41;;;;;;;7.85;6.05;;;;;;;;;;5057726;28;20185;-64
2022/08/16 10:38:07;;;;;;;8.23;6.13;;;;;;;;;;5058879;28;20173;-64
2022/08/16 10:40:33;;;;;;;8.05;6.35;;;;;;;;;;5067261;28;20518;-64
2022/08/16 10:42:58;;;;;;;7.97;5.70;;;;;;;;;;5071286;28;20184;-64
2022/08/16 10:45:24;;;;;;;8.10;5.93;;;;;;;;;;5063810;28;20197;-64
2022/08/16 10:47:50;;;;;;;8.02;6.07;;;;;;;;;;5059105;28;20189;-64
2022/08/16 10:50:15;;;;;;;8.02;6.00;;;;;;;;;;5056071;28;20240;-67
2022/08/16 10:52:40;;;;;;;6.88;6.28;;;;;;;;;;5054791;28;20204;-64
2022/08/16 10:55:11;;;;;;;7.50;6.78;;;;;;;;;;5050422;28;20185;-64
2022/08/16 10:57:37;;;;;;;11.23;6.90;;;;;;;;;;5049808;28;20231;-64
2022/08/16 11:00:11;;;;;;;7.28;6.43;;;;;;;;;;5061589;28;20252;-64
2022/08/16 11:02:36;;;;;;;7.93;6.53;;;;;;;;;;5070344;28;20199;-64
2022/08/16 11:05:03;;;;;;;9.60;6.80;;;;;;;;;;5070568;28;20605;-64
2022/08/16 11:07:29;;;;;;;11.52;6.45;;;;;;;;;;5056047;28;20448;-65
2022/08/16 11:09:54;;;;;;;10.30;5.95;;;;;;;;;;5050219;28;20201;-64
2022/08/16 11:12:19;;;;;;;7.22;5.70;;;;;;;;;;5057959;28;20181;-64
2022/08/16 11:14:44;;;;;;;6.88;5.00;;;;;;;;;;5063919;28;20207;-66
2022/08/16 11:17:12;;;;;;;7.47;4.88;;;;;;;;;;5050343;28;20620;-65
2022/08/16 11:19:40;;;;;;;7.50;4.97;;;;;;;;;;5050912;28;20174;-64
2022/08/16 11:22:06;;;;;;;6.00;4.80;;;;;;;;;;5050235;28;20645;-64
2022/08/16 11:24:32;;;;;;;5.88;4.97;;;;;;;;;;5051783;28;20192;-66
2022/08/16 11:26:57;;;;;;;8.15;5.70;;;;;;;;;;5048682;28;20278;-64
2022/08/16 11:29:22;;;;;;;8.90;5.53;;;;;;;;;;5050607;28;20197;-65
2022/08/16 11:31:48;;;;;;;7.20;4.65;;;;;;;;;;5056365;28;20584;-64
2022/08/16 11:34:15;;;;;;;4.70;4.28;;;;;;;;;;5049983;28;20185;-64
2022/08/16 11:36:40;;;;;;;7.90;4.28;;;;;;;;;;5062930;28;20193;-69
2022/08/16 11:39:06;;;;;;;7.00;4.72;;;;;;;;;;5063486;28;20182;-65
2022/08/16 11:41:33;;;;;;;6.93;4.70;;;;;;;;;;5059980;28;20269;-64
2022/08/16 11:43:59;;;;;;;5.15;4.65;;;;;;;;;;5050788;28;20185;-64
2022/08/16 11:46:26;;;;;;;5.65;5.13;;;;;;;;;;5058647;28;20258;-64
2022/08/16 11:48:51;;;;;;;8.68;5.10;;;;;;;;;;5065145;28;20181;-64
2022/08/16 11:51:17;;;;;;;6.38;5.30;;;;;;;;;;5060883;28;20271;-64
2022/08/16 11:53:42;;;;;;;5.13;4.72;;;;;;;;;;5060292;28;20176;-64
2022/08/16 11:56:07;;;;;;;6.03;4.97;;;;;;;;;;5047963;28;20302;-65
2022/08/16 11:58:33;;;;;;;5.47;4.97;;;;;;;;;;5061794;28;20263;-64
2022/08/16 12:00:58;;;;;;;8.68;4.95;;;;;;;;;;5069170;28;20195;-63
2022/08/16 12:03:27;;;;;;;7.25;5.43;;;;;;;;;;5062238;28;20273;-64
2022/08/16 12:05:53;;;;;;;5.45;4.95;;;;;;;;;;5050939;28;21531;-64
2022/08/16 12:08:20;;;;;;;6.25;4.55;;;;;;;;;;5060830;28;20246;-64
2022/08/16 12:10:45;;;;;;;5.60;4.47;;;;;;;;;;5049484;28;20213;-65
2022/08/16 12:13:12;;;;;;;4.63;4.18;;;;;;;;;;5068859;28;20592;-64
2022/08/16 12:15:39;;;;;;;4.80;4.15;;;;;;;;;;5060155;28;20680;-64
2022/08/16 12:18:05;;;;;;;5.28;4.22;;;;;;;;;;5066229;28;20184;-64
2022/08/16 12:20:34;;;;;;;9.05;4.15;;;;;;;;;;5069233;28;20185;-64
2022/08/16 12:23:00;;;;;;;6.80;5.07;;;;;;;;;;5062652;28;20545;-64
2022/08/16 12:25:27;;;;;;;8.02;4.82;;;;;;;;;;5049923;28;20256;-65
2022/08/16 12:27:54;;;;;;;8.75;4.80;;;;;;;;;;5048290;28;20371;-64
2022/08/16 12:30:24;;;;;;;14.77;4.90;;;;;;;;;;5065566;28;20197;-64
2022/08/16 12:32:50;;;;;;;25.98;5.03;;;;;;;;;;5062388;28;20677;-64
2022/08/16 12:35:19;;;;;;;7.53;4.10;;;;;;;;;;5061427;28;20192;-65
2022/08/16 12:37:45;;;;;;;8.50;4.40;;;;;;;;;;5058742;28;20225;-64
2022/08/16 12:40:19;;;;;;;5.80;4.97;;;;;;;;;;5066087;28;20180;-65
2022/08/16 12:42:44;;;;;;;6.93;4.22;;;;;;;;;;5056523;28;20189;-65
2022/08/16 12:45:12;;;;;;;8.23;4.60;;;;;;;;;;5067542;28;20181;-64
2022/08/16 12:50:22;;;;;;;5.55;5.05;;;;;;;;;;5065768;28;20211;-64
2022/08/16 12:52:48;;;;;;;6.40;4.72;;;;;;;;;;5051417;28;20548;-64
2022/08/16 12:55:14;;;;;;;6.55;4.47;;;;;;;;;;5055150;28;20648;-66
2022/08/16 12:57:39;;;;;;;7.47;4.80;;;;;;;;;;5061902;28;20192;-64
2022/08/16 13:00:11;;;;;;;6.38;4.13;;;;;;;;;;5059032;28;20592;-64
2022/08/16 13:02:37;;;;;;;6.00;4.70;;;;;;;;;;5067732;28;20188;-64
2022/08/16 13:05:03;;;;;;;4.97;4.10;;;;;;;;;;5068598;28;20176;-64
2022/08/16 13:07:30;;;;;;;6.13;4.47;;;;;;;;;;5066181;28;20701;-64
2022/08/16 13:09:57;;;;;;;6.55;4.45;;;;;;;;;;5055995;28;20200;-64
2022/08/16 13:12:25;;;;;;;5.10;4.60;;;;;;;;;;5053683;28;20186;-69
2022/08/16 13:14:52;;;;;;;4.53;4.13;;;;;;;;;;5054875;28;20185;-64
2022/08/16 13:17:20;;;;;;;9.88;4.53;;;;;;;;;;5054953;28;20189;-64
2022/08/16 13:19:47;;;;;;;5.13;4.22;;;;;;;;;;5052854;28;20191;-71
2022/08/16 13:22:13;;;;;;;8.00;4.18;;;;;;;;;;5056476;28;20181;-64
2022/08/16 13:24:38;;;;;;;4.60;4.20;;;;;;;;;;5053419;28;20191;-64
2022/08/16 13:27:03;;;;;;;14.95;5.15;;;;;;;;;;5051960;28;20504;-64
2022/08/16 13:29:29;;;;;;;4.88;4.47;;;;;;;;;;5068375;28;20315;-71
2022/08/16 13:31:55;;;;;;;7.35;4.53;;;;;;;;;;5073909;28;20199;-64
2022/08/16 13:34:20;;;;;;;6.45;4.03;;;;;;;;;;5057059;28;20190;-64
2022/08/16 13:36:46;;;;;;;4.65;4.10;;;;;;;;;;5048363;28;20491;-64
2022/08/16 13:39:11;;;;;;;8.40;4.32;;;;;;;;;;5067836;28;20222;-64
2022/08/16 13:41:36;;;;;;;6.47;4.32;;;;;;;;;;5066673;28;20173;-65
2022/08/16 13:44:03;;;;;;;5.32;4.72;;;;;;;;;;5049166;28;20192;-66
2022/08/16 13:46:30;;;;;;;5.20;4.20;;;;;;;;;;5058226;28;20203;-64
2022/08/16 13:48:57;;;;;;;4.78;3.90;;;;;;;;;;5051943;28;20187;-64
2022/08/16 13:51:23;;;;;;;5.00;4.07;;;;;;;;;;5070274;28;20680;-64
2022/08/16 13:53:51;;;;;;;5.65;3.85;;;;;;;;;;5060900;28;20266;-64
2022/08/16 13:56:17;;;;;;;4.93;4.40;;;;;;;;;;5062424;28;20188;-64
2022/08/16 13:58:43;;;;;;;4.97;4.47;;;;;;;;;;5052002;28;20185;-64
2022/08/16 14:01:08;;;;;;;4.70;4.10;;;;;;;;;;5065540;28;20180;-66
2022/08/16 14:03:34;;;;;;;5.18;4.05;;;;;;;;;;5070914;28;20238;-66
2022/08/16 14:06:00;;;;;;;5.18;4.55;;;;;;;;;;5056986;28;20185;-65
2022/08/16 14:08:26;;;;;;;4.60;4.20;;;;;;;;;;5071513;28;20396;-64
2022/08/16 14:10:51;;;;;;;6.82;4.75;;;;;;;;;;5054100;28;20320;-64
2022/08/16 14:13:17;;;;;;;7.75;4.50;;;;;;;;;;5058498;28;20187;-64
2022/08/16 14:15:42;;;;;;;4.97;4.57;;;;;;;;;;5071610;28;20181;-64
2022/08/16 14:18:07;;;;;;;6.78;4.88;;;;;;;;;;5051106;28;20193;-64
2022/08/16 14:20:33;;;;;;;5.95;4.55;;;;;;;;;;5051460;28;20174;-64
2022/08/16 14:22:58;;;;;;;8.55;4.70;;;;;;;;;;5050467;28;20184;-64